sensor_id;sensor_type;location;lat;lon;timestamp;P1;durP1;ratioP1;P2;durP2;ratioP2
7477;SDS011;3780;42.424;25.636;2024-02-28T00:01:29;26.02;;;11.13;;
7477;SDS011;3780;42.424;25.636;2024-02-28T00:03:54;20.00;;;10.32;;
7477;SDS011;3780;42.424;25.636;2024-02-28T00:06:19;21.35;;;10.55;;
7477;SDS011;3780;42.424;25.636;2024-02-28T00:08:45;20.02;;;10.52;;
7477;SDS011;3780;42.424;25.636;2024-02-28T00:11:11;18.23;;;10.23;;
7477;SDS011;3780;42.424;25.636;2024-02-28T00:13:36;20.88;;;10.05;;
7477;SDS011;3780;42.424;25.636;2024-02-28T00:16:01;21.10;;;10.93;;
7477;SDS011;3780;42.424;25.636;2024-02-28T00:18:27;14.82;;;9.52;;
7477;SDS011;3780;42.424;25.636;2024-02-28T00:20:52;24.60;;;10.52;;
7477;SDS011;3780;42.424;25.636;2024-02-28T00:23:19;22.20;;;10.63;;
7477;SDS011;3780;42.424;25.636;2024-02-28T00:25:44;18.48;;;10.10;;
7477;SDS011;3780;42.424;25.636;2024-02-28T00:28:09;21.50;;;10.38;;
7477;SDS011;3780;42.424;25.636;2024-02-28T00:30:35;19.75;;;10.30;;
7477;SDS011;3780;42.424;25.636;2024-02-28T00:33:00;16.20;;;9.40;;
7477;SDS011;3780;42.424;25.636;2024-02-28T00:35:25;20.45;;;9.85;;
7477;SDS011;3780;42.424;25.636;2024-02-28T00:37:51;18.42;;;10.48;;
7477;SDS011;3780;42.424;25.636;2024-02-28T00:40:16;21.77;;;10.10;;
7477;SDS011;3780;42.424;25.636;2024-02-28T00:42:41;22.92;;;10.10;;
7477;SDS011;3780;42.424;25.636;2024-02-28T00:45:08;17.63;;;9.65;;
7477;SDS011;3780;42.424;25.636;2024-02-28T00:47:33;22.02;;;9.88;;
7477;SDS011;3780;42.424;25.636;2024-02-28T00:49:59;19.05;;;9.85;;
7477;SDS011;3780;42.424;25.636;2024-02-28T00:52:24;24.23;;;10.88;;
7477;SDS011;3780;42.424;25.636;2024-02-28T00:54:50;20.40;;;10.05;;
7477;SDS011;3780;42.424;25.636;2024-02-28T00:57:16;23.88;;;10.63;;
7477;SDS011;3780;42.424;25.636;2024-02-28T00:59:41;27.70;;;11.45;;
7477;SDS011;3780;42.424;25.636;2024-02-28T01:02:07;21.23;;;10.18;;
7477;SDS011;3780;42.424;25.636;2024-02-28T01:04:32;18.73;;;10.73;;
7477;SDS011;3780;42.424;25.636;2024-02-28T01:06:58;21.17;;;10.10;;
7477;SDS011;3780;42.424;25.636;2024-02-28T01:09:24;24.50;;;11.52;;
7477;SDS011;3780;42.424;25.636;2024-02-28T01:11:49;25.30;;;11.95;;
7477;SDS011;3780;42.424;25.636;2024-02-28T01:14:14;24.58;;;10.32;;
7477;SDS011;3780;42.424;25.636;2024-02-28T01:16:39;24.25;;;11.65;;
7477;SDS011;3780;42.424;25.636;2024-02-28T01:19:05;20.52;;;10.90;;
7477;SDS011;3780;42.424;25.636;2024-02-28T01:21:30;20.08;;;9.98;;
7477;SDS011;3780;42.424;25.636;2024-02-28T01:23:55;22.63;;;10.55;;
7477;SDS011;3780;42.424;25.636;2024-02-28T01:26:20;21.58;;;10.38;;
7477;SDS011;3780;42.424;25.636;2024-02-28T01:28:47;21.98;;;10.20;;
7477;SDS011;3780;42.424;25.636;2024-02-28T01:31:12;22.83;;;10.32;;
7477;SDS011;3780;42.424;25.636;2024-02-28T01:33:37;17.98;;;10.25;;
7477;SDS011;3780;42.424;25.636;2024-02-28T01:36:04;25.23;;;10.40;;
7477;SDS011;3780;42.424;25.636;2024-02-28T01:38:31;23.70;;;11.45;;
7477;SDS011;3780;42.424;25.636;2024-02-28T01:40:56;26.27;;;11.35;;
7477;SDS011;3780;42.424;25.636;2024-02-28T01:43:22;22.75;;;10.45;;
7477;SDS011;3780;42.424;25.636;2024-02-28T01:45:47;23.50;;;11.30;;
7477;SDS011;3780;42.424;25.636;2024-02-28T01:48:12;18.00;;;10.25;;
7477;SDS011;3780;42.424;25.636;2024-02-28T01:50:38;24.70;;;11.27;;
7477;SDS011;3780;42.424;25.636;2024-02-28T01:53:03;22.85;;;11.88;;
7477;SDS011;3780;42.424;25.636;2024-02-28T01:55:29;23.70;;;12.25;;
7477;SDS011;3780;42.424;25.636;2024-02-28T01:57:55;23.30;;;11.50;;
7477;SDS011;3780;42.424;25.636;2024-02-28T02:00:20;23.13;;;11.50;;
7477;SDS011;3780;42.424;25.636;2024-02-28T02:02:46;20.05;;;11.15;;
7477;SDS011;3780;42.424;25.636;2024-02-28T02:05:12;22.75;;;12.00;;
7477;SDS011;3780;42.424;25.636;2024-02-28T02:07:37;23.20;;;10.65;;
7477;SDS011;3780;42.424;25.636;2024-02-28T02:10:04;21.00;;;10.90;;
7477;SDS011;3780;42.424;25.636;2024-02-28T02:12:33;21.05;;;10.60;;
7477;SDS011;3780;42.424;25.636;2024-02-28T02:14:58;23.20;;;11.05;;
7477;SDS011;3780;42.424;25.636;2024-02-28T02:17:23;23.15;;;10.73;;
7477;SDS011;3780;42.424;25.636;2024-02-28T02:19:49;20.02;;;10.82;;
7477;SDS011;3780;42.424;25.636;2024-02-28T02:22:14;21.75;;;10.55;;
7477;SDS011;3780;42.424;25.636;2024-02-28T02:24:40;20.35;;;9.98;;
7477;SDS011;3780;42.424;25.636;2024-02-28T02:27:05;20.98;;;9.18;;
7477;SDS011;3780;42.424;25.636;2024-02-28T02:29:30;21.38;;;10.43;;
7477;SDS011;3780;42.424;25.636;2024-02-28T02:31:56;19.75;;;10.43;;
7477;SDS011;3780;42.424;25.636;2024-02-28T02:34:21;20.23;;;10.07;;
7477;SDS011;3780;42.424;25.636;2024-02-28T02:36:46;20.58;;;10.52;;
7477;SDS011;3780;42.424;25.636;2024-02-28T02:39:12;20.63;;;10.25;;
7477;SDS011;3780;42.424;25.636;2024-02-28T02:41:37;22.60;;;10.32;;
7477;SDS011;3780;42.424;25.636;2024-02-28T02:44:02;20.23;;;10.57;;
7477;SDS011;3780;42.424;25.636;2024-02-28T02:46:28;21.92;;;11.05;;
7477;SDS011;3780;42.424;25.636;2024-02-28T02:48:53;23.90;;;10.75;;
7477;SDS011;3780;42.424;25.636;2024-02-28T02:51:19;22.30;;;10.88;;
7477;SDS011;3780;42.424;25.636;2024-02-28T02:53:44;20.58;;;10.15;;
7477;SDS011;3780;42.424;25.636;2024-02-28T02:56:09;21.05;;;10.50;;
7477;SDS011;3780;42.424;25.636;2024-02-28T02:58:35;20.48;;;10.20;;
7477;SDS011;3780;42.424;25.636;2024-02-28T03:01:00;18.85;;;10.05;;
7477;SDS011;3780;42.424;25.636;2024-02-28T03:03:25;19.50;;;9.52;;
7477;SDS011;3780;42.424;25.636;2024-02-28T03:05:50;20.83;;;9.98;;
7477;SDS011;3780;42.424;25.636;2024-02-28T03:08:16;20.63;;;9.82;;
7477;SDS011;3780;42.424;25.636;2024-02-28T03:10:41;22.88;;;10.43;;
7477;SDS011;3780;42.424;25.636;2024-02-28T03:13:06;19.67;;;9.77;;
7477;SDS011;3780;42.424;25.636;2024-02-28T03:15:32;23.60;;;10.65;;
7477;SDS011;3780;42.424;25.636;2024-02-28T03:17:58;23.85;;;10.13;;
7477;SDS011;3780;42.424;25.636;2024-02-28T03:20:23;23.15;;;10.23;;
7477;SDS011;3780;42.424;25.636;2024-02-28T03:22:49;21.02;;;10.13;;
7477;SDS011;3780;42.424;25.636;2024-02-28T03:25:14;23.30;;;10.48;;
7477;SDS011;3780;42.424;25.636;2024-02-28T03:27:39;21.80;;;9.30;;
7477;SDS011;3780;42.424;25.636;2024-02-28T03:30:05;23.85;;;10.68;;
7477;SDS011;3780;42.424;25.636;2024-02-28T03:32:30;20.35;;;9.40;;
7477;SDS011;3780;42.424;25.636;2024-02-28T03:34:55;25.38;;;12.07;;
7477;SDS011;3780;42.424;25.636;2024-02-28T03:37:21;26.02;;;10.05;;
7477;SDS011;3780;42.424;25.636;2024-02-28T03:39:46;23.45;;;10.25;;
7477;SDS011;3780;42.424;25.636;2024-02-28T03:42:11;19.42;;;10.60;;
7477;SDS011;3780;42.424;25.636;2024-02-28T03:44:37;24.75;;;10.70;;
7477;SDS011;3780;42.424;25.636;2024-02-28T03:47:02;22.42;;;10.57;;
7477;SDS011;3780;42.424;25.636;2024-02-28T03:49:27;18.00;;;10.05;;
7477;SDS011;3780;42.424;25.636;2024-02-28T03:51:52;24.33;;;10.20;;
7477;SDS011;3780;42.424;25.636;2024-02-28T03:54:18;22.42;;;10.80;;
7477;SDS011;3780;42.424;25.636;2024-02-28T03:56:43;24.90;;;10.43;;
7477;SDS011;3780;42.424;25.636;2024-02-28T03:59:08;22.50;;;10.45;;
7477;SDS011;3780;42.424;25.636;2024-02-28T04:01:34;26.80;;;11.35;;
7477;SDS011;3780;42.424;25.636;2024-02-28T04:03:59;20.83;;;10.45;;
7477;SDS011;3780;42.424;25.636;2024-02-28T04:06:24;22.90;;;10.27;;
7477;SDS011;3780;42.424;25.636;2024-02-28T04:08:50;28.80;;;10.30;;
7477;SDS011;3780;42.424;25.636;2024-02-28T04:11:15;20.17;;;10.35;;
7477;SDS011;3780;42.424;25.636;2024-02-28T04:13:40;20.85;;;10.38;;
7477;SDS011;3780;42.424;25.636;2024-02-28T04:16:07;22.10;;;10.32;;
7477;SDS011;3780;42.424;25.636;2024-02-28T04:18:32;23.98;;;12.18;;
7477;SDS011;3780;42.424;25.636;2024-02-28T04:20:58;25.23;;;11.20;;
7477;SDS011;3780;42.424;25.636;2024-02-28T04:23:24;23.77;;;11.35;;
7477;SDS011;3780;42.424;25.636;2024-02-28T04:25:49;25.48;;;12.35;;
7477;SDS011;3780;42.424;25.636;2024-02-28T04:28:14;28.13;;;12.80;;
7477;SDS011;3780;42.424;25.636;2024-02-28T04:30:39;23.33;;;11.70;;
7477;SDS011;3780;42.424;25.636;2024-02-28T04:33:05;23.83;;;12.55;;
7477;SDS011;3780;42.424;25.636;2024-02-28T04:35:30;27.30;;;12.02;;
7477;SDS011;3780;42.424;25.636;2024-02-28T04:37:55;23.60;;;11.65;;
7477;SDS011;3780;42.424;25.636;2024-02-28T04:40:21;31.83;;;12.52;;
7477;SDS011;3780;42.424;25.636;2024-02-28T04:42:46;25.83;;;11.55;;
7477;SDS011;3780;42.424;25.636;2024-02-28T04:45:12;22.02;;;12.45;;
7477;SDS011;3780;42.424;25.636;2024-02-28T04:47:37;22.95;;;11.40;;
7477;SDS011;3780;42.424;25.636;2024-02-28T04:50:03;25.55;;;12.35;;
7477;SDS011;3780;42.424;25.636;2024-02-28T04:52:30;24.42;;;11.77;;
7477;SDS011;3780;42.424;25.636;2024-02-28T04:54:55;25.52;;;12.02;;
7477;SDS011;3780;42.424;25.636;2024-02-28T04:57:21;23.25;;;11.85;;
7477;SDS011;3780;42.424;25.636;2024-02-28T04:59:46;24.88;;;11.55;;
7477;SDS011;3780;42.424;25.636;2024-02-28T05:02:11;28.13;;;13.18;;
7477;SDS011;3780;42.424;25.636;2024-02-28T05:04:37;30.42;;;14.05;;
7477;SDS011;3780;42.424;25.636;2024-02-28T05:07:02;25.17;;;12.98;;
7477;SDS011;3780;42.424;25.636;2024-02-28T05:09:28;49.10;;;19.20;;
7477;SDS011;3780;42.424;25.636;2024-02-28T05:11:53;37.72;;;16.45;;
7477;SDS011;3780;42.424;25.636;2024-02-28T05:14:19;33.42;;;13.60;;
7477;SDS011;3780;42.424;25.636;2024-02-28T05:16:44;31.40;;;15.20;;
7477;SDS011;3780;42.424;25.636;2024-02-28T05:19:09;34.72;;;14.43;;
7477;SDS011;3780;42.424;25.636;2024-02-28T05:21:41;27.02;;;13.57;;
7477;SDS011;3780;42.424;25.636;2024-02-28T05:24:07;34.15;;;13.70;;
7477;SDS011;3780;42.424;25.636;2024-02-28T05:26:33;33.05;;;14.35;;
7477;SDS011;3780;42.424;25.636;2024-02-28T05:28:59;26.02;;;12.75;;
7477;SDS011;3780;42.424;25.636;2024-02-28T05:31:25;28.25;;;12.75;;
7477;SDS011;3780;42.424;25.636;2024-02-28T05:33:51;24.88;;;13.15;;
7477;SDS011;3780;42.424;25.636;2024-02-28T05:36:17;26.30;;;13.48;;
7477;SDS011;3780;42.424;25.636;2024-02-28T05:38:43;31.17;;;12.90;;
7477;SDS011;3780;42.424;25.636;2024-02-28T05:41:08;27.10;;;13.30;;
7477;SDS011;3780;42.424;25.636;2024-02-28T05:43:33;26.05;;;14.13;;
7477;SDS011;3780;42.424;25.636;2024-02-28T05:45:59;26.60;;;14.20;;
7477;SDS011;3780;42.424;25.636;2024-02-28T05:48:24;28.08;;;14.15;;
7477;SDS011;3780;42.424;25.636;2024-02-28T05:50:49;38.80;;;15.10;;
7477;SDS011;3780;42.424;25.636;2024-02-28T05:53:14;31.73;;;15.30;;
7477;SDS011;3780;42.424;25.636;2024-02-28T05:55:40;31.42;;;14.85;;
7477;SDS011;3780;42.424;25.636;2024-02-28T05:58:05;31.88;;;17.98;;
7477;SDS011;3780;42.424;25.636;2024-02-28T06:00:30;39.88;;;14.98;;
7477;SDS011;3780;42.424;25.636;2024-02-28T06:02:55;33.25;;;17.38;;
7477;SDS011;3780;42.424;25.636;2024-02-28T06:05:21;31.02;;;13.75;;
7477;SDS011;3780;42.424;25.636;2024-02-28T06:07:46;31.73;;;13.75;;
7477;SDS011;3780;42.424;25.636;2024-02-28T06:10:11;30.92;;;13.63;;
7477;SDS011;3780;42.424;25.636;2024-02-28T06:12:37;41.83;;;15.55;;
7477;SDS011;3780;42.424;25.636;2024-02-28T06:15:02;159.38;;;22.45;;
7477;SDS011;3780;42.424;25.636;2024-02-28T06:17:28;49.55;;;16.35;;
7477;SDS011;3780;42.424;25.636;2024-02-28T06:19:54;62.47;;;16.08;;
7477;SDS011;3780;42.424;25.636;2024-02-28T06:22:19;80.40;;;18.70;;
7477;SDS011;3780;42.424;25.636;2024-02-28T06:24:45;32.88;;;14.27;;
7477;SDS011;3780;42.424;25.636;2024-02-28T06:27:10;31.45;;;13.48;;
7477;SDS011;3780;42.424;25.636;2024-02-28T06:29:38;25.50;;;12.73;;
7477;SDS011;3780;42.424;25.636;2024-02-28T06:32:03;29.70;;;17.75;;
7477;SDS011;3780;42.424;25.636;2024-02-28T06:34:29;25.55;;;13.38;;
7477;SDS011;3780;42.424;25.636;2024-02-28T06:36:54;33.78;;;17.45;;
7477;SDS011;3780;42.424;25.636;2024-02-28T06:39:19;52.40;;;13.43;;
7477;SDS011;3780;42.424;25.636;2024-02-28T06:41:45;41.53;;;12.10;;
7477;SDS011;3780;42.424;25.636;2024-02-28T06:44:10;20.40;;;9.40;;
7477;SDS011;3780;42.424;25.636;2024-02-28T06:46:36;30.52;;;10.05;;
7477;SDS011;3780;42.424;25.636;2024-02-28T06:49:02;26.48;;;9.65;;
7477;SDS011;3780;42.424;25.636;2024-02-28T06:51:27;24.13;;;9.10;;
7477;SDS011;3780;42.424;25.636;2024-02-28T06:53:52;33.42;;;11.90;;
7477;SDS011;3780;42.424;25.636;2024-02-28T06:56:18;30.70;;;12.45;;
7477;SDS011;3780;42.424;25.636;2024-02-28T06:58:43;77.30;;;42.67;;
7477;SDS011;3780;42.424;25.636;2024-02-28T07:01:08;50.15;;;24.60;;
7477;SDS011;3780;42.424;25.636;2024-02-28T07:03:34;51.55;;;21.05;;
7477;SDS011;3780;42.424;25.636;2024-02-28T07:05:59;50.47;;;19.85;;
7477;SDS011;3780;42.424;25.636;2024-02-28T07:08:24;54.00;;;23.83;;
7477;SDS011;3780;42.424;25.636;2024-02-28T07:10:49;56.28;;;23.42;;
7477;SDS011;3780;42.424;25.636;2024-02-28T07:13:18;65.75;;;28.02;;
7477;SDS011;3780;42.424;25.636;2024-02-28T07:15:44;68.13;;;30.90;;
7477;SDS011;3780;42.424;25.636;2024-02-28T07:18:09;63.53;;;33.10;;
7477;SDS011;3780;42.424;25.636;2024-02-28T07:20:34;58.92;;;32.38;;
7477;SDS011;3780;42.424;25.636;2024-02-28T07:23:00;74.70;;;36.20;;
7477;SDS011;3780;42.424;25.636;2024-02-28T07:25:25;73.18;;;34.10;;
7477;SDS011;3780;42.424;25.636;2024-02-28T07:27:51;62.28;;;27.75;;
7477;SDS011;3780;42.424;25.636;2024-02-28T07:30:16;52.50;;;30.60;;
7477;SDS011;3780;42.424;25.636;2024-02-28T07:32:41;63.20;;;31.50;;
7477;SDS011;3780;42.424;25.636;2024-02-28T07:35:07;64.50;;;37.42;;
7477;SDS011;3780;42.424;25.636;2024-02-28T07:37:32;65.78;;;39.53;;
7477;SDS011;3780;42.424;25.636;2024-02-28T07:39:57;64.68;;;37.15;;
7477;SDS011;3780;42.424;25.636;2024-02-28T07:42:23;58.67;;;31.88;;
7477;SDS011;3780;42.424;25.636;2024-02-28T07:44:48;56.30;;;28.02;;
7477;SDS011;3780;42.424;25.636;2024-02-28T07:47:18;53.55;;;25.92;;
7477;SDS011;3780;42.424;25.636;2024-02-28T07:49:43;49.72;;;22.70;;
7477;SDS011;3780;42.424;25.636;2024-02-28T07:52:08;54.80;;;24.40;;
7477;SDS011;3780;42.424;25.636;2024-02-28T07:54:34;63.75;;;26.88;;
7477;SDS011;3780;42.424;25.636;2024-02-28T07:56:59;77.63;;;40.78;;
7477;SDS011;3780;42.424;25.636;2024-02-28T07:59:24;63.55;;;32.97;;
7477;SDS011;3780;42.424;25.636;2024-02-28T08:01:50;54.55;;;25.83;;
7477;SDS011;3780;42.424;25.636;2024-02-28T08:04:15;67.07;;;28.35;;
7477;SDS011;3780;42.424;25.636;2024-02-28T08:06:40;53.03;;;29.45;;
7477;SDS011;3780;42.424;25.636;2024-02-28T08:09:05;63.72;;;28.20;;
7477;SDS011;3780;42.424;25.636;2024-02-28T08:11:32;60.53;;;28.40;;
7477;SDS011;3780;42.424;25.636;2024-02-28T08:13:57;35.92;;;16.65;;
7477;SDS011;3780;42.424;25.636;2024-02-28T08:16:23;39.83;;;18.55;;
7477;SDS011;3780;42.424;25.636;2024-02-28T08:18:48;36.83;;;16.45;;
7477;SDS011;3780;42.424;25.636;2024-02-28T08:21:13;41.42;;;16.58;;
7477;SDS011;3780;42.424;25.636;2024-02-28T08:23:38;34.10;;;14.82;;
7477;SDS011;3780;42.424;25.636;2024-02-28T08:26:04;49.20;;;29.00;;
7477;SDS011;3780;42.424;25.636;2024-02-28T08:28:29;32.33;;;16.73;;
7477;SDS011;3780;42.424;25.636;2024-02-28T08:30:54;36.78;;;18.15;;
7477;SDS011;3780;42.424;25.636;2024-02-28T08:33:20;32.25;;;14.30;;
7477;SDS011;3780;42.424;25.636;2024-02-28T08:35:45;30.38;;;14.63;;
7477;SDS011;3780;42.424;25.636;2024-02-28T08:38:10;32.05;;;13.50;;
7477;SDS011;3780;42.424;25.636;2024-02-28T08:40:36;28.80;;;13.00;;
7477;SDS011;3780;42.424;25.636;2024-02-28T08:43:01;25.70;;;12.80;;
7477;SDS011;3780;42.424;25.636;2024-02-28T08:45:26;31.65;;;12.65;;
7477;SDS011;3780;42.424;25.636;2024-02-28T08:47:51;27.08;;;12.65;;
7477;SDS011;3780;42.424;25.636;2024-02-28T08:50:18;35.13;;;12.65;;
7477;SDS011;3780;42.424;25.636;2024-02-28T08:52:43;25.17;;;12.55;;
7477;SDS011;3780;42.424;25.636;2024-02-28T08:55:09;28.05;;;12.05;;
7477;SDS011;3780;42.424;25.636;2024-02-28T08:57:34;24.40;;;12.43;;
7477;SDS011;3780;42.424;25.636;2024-02-28T08:59:59;31.85;;;16.30;;
7477;SDS011;3780;42.424;25.636;2024-02-28T09:02:25;28.40;;;14.40;;
7477;SDS011;3780;42.424;25.636;2024-02-28T09:04:50;34.63;;;20.98;;
7477;SDS011;3780;42.424;25.636;2024-02-28T09:07:18;28.58;;;12.25;;
7477;SDS011;3780;42.424;25.636;2024-02-28T09:09:45;25.60;;;12.68;;
7477;SDS011;3780;42.424;25.636;2024-02-28T09:12:10;26.70;;;12.93;;
7477;SDS011;3780;42.424;25.636;2024-02-28T09:14:35;34.65;;;14.05;;
7477;SDS011;3780;42.424;25.636;2024-02-28T09:17:01;30.02;;;14.57;;
7477;SDS011;3780;42.424;25.636;2024-02-28T09:19:29;28.92;;;13.43;;
7477;SDS011;3780;42.424;25.636;2024-02-28T09:21:54;31.38;;;14.43;;
7477;SDS011;3780;42.424;25.636;2024-02-28T09:24:19;35.45;;;16.20;;
7477;SDS011;3780;42.424;25.636;2024-02-28T09:26:44;34.25;;;15.43;;
7477;SDS011;3780;42.424;25.636;2024-02-28T09:29:10;24.90;;;14.38;;
7477;SDS011;3780;42.424;25.636;2024-02-28T09:31:35;24.42;;;13.52;;
7477;SDS011;3780;42.424;25.636;2024-02-28T09:34:00;27.90;;;13.52;;
7477;SDS011;3780;42.424;25.636;2024-02-28T09:36:31;28.25;;;13.10;;
7477;SDS011;3780;42.424;25.636;2024-02-28T09:38:56;25.70;;;13.85;;
7477;SDS011;3780;42.424;25.636;2024-02-28T09:41:22;26.30;;;12.88;;
7477;SDS011;3780;42.424;25.636;2024-02-28T09:43:48;30.95;;;14.35;;
7477;SDS011;3780;42.424;25.636;2024-02-28T09:46:14;29.58;;;13.43;;
7477;SDS011;3780;42.424;25.636;2024-02-28T09:48:39;23.15;;;12.70;;
7477;SDS011;3780;42.424;25.636;2024-02-28T09:51:05;35.13;;;14.00;;
7477;SDS011;3780;42.424;25.636;2024-02-28T09:53:31;26.23;;;14.02;;
7477;SDS011;3780;42.424;25.636;2024-02-28T09:55:56;22.45;;;12.60;;
7477;SDS011;3780;42.424;25.636;2024-02-28T09:58:21;25.92;;;15.55;;
7477;SDS011;3780;42.424;25.636;2024-02-28T10:00:48;25.08;;;12.68;;
7477;SDS011;3780;42.424;25.636;2024-02-28T10:03:14;23.92;;;12.43;;
7477;SDS011;3780;42.424;25.636;2024-02-28T10:05:40;22.33;;;13.30;;
7477;SDS011;3780;42.424;25.636;2024-02-28T10:08:06;21.48;;;12.73;;
7477;SDS011;3780;42.424;25.636;2024-02-28T10:10:31;23.42;;;13.13;;
7477;SDS011;3780;42.424;25.636;2024-02-28T10:12:57;21.88;;;12.65;;
7477;SDS011;3780;42.424;25.636;2024-02-28T10:15:26;29.77;;;13.85;;
7477;SDS011;3780;42.424;25.636;2024-02-28T10:17:51;23.25;;;13.02;;
7477;SDS011;3780;42.424;25.636;2024-02-28T10:20:16;23.42;;;13.02;;
7477;SDS011;3780;42.424;25.636;2024-02-28T10:22:42;26.92;;;15.43;;
7477;SDS011;3780;42.424;25.636;2024-02-28T10:25:07;25.20;;;12.13;;
7477;SDS011;3780;42.424;25.636;2024-02-28T10:27:33;26.58;;;12.15;;
7477;SDS011;3780;42.424;25.636;2024-02-28T10:29:59;22.75;;;12.02;;
7477;SDS011;3780;42.424;25.636;2024-02-28T10:32:24;24.30;;;12.20;;
7477;SDS011;3780;42.424;25.636;2024-02-28T10:34:50;21.63;;;11.77;;
7477;SDS011;3780;42.424;25.636;2024-02-28T10:37:16;31.23;;;18.05;;
7477;SDS011;3780;42.424;25.636;2024-02-28T10:39:42;21.13;;;12.70;;
7477;SDS011;3780;42.424;25.636;2024-02-28T10:42:08;22.23;;;11.80;;
7477;SDS011;3780;42.424;25.636;2024-02-28T10:44:34;28.00;;;15.27;;
7477;SDS011;3780;42.424;25.636;2024-02-28T10:47:00;18.25;;;11.25;;
7477;SDS011;3780;42.424;25.636;2024-02-28T10:49:26;24.70;;;13.32;;
7477;SDS011;3780;42.424;25.636;2024-02-28T10:51:51;22.42;;;13.13;;
7477;SDS011;3780;42.424;25.636;2024-02-28T10:54:20;30.13;;;17.52;;
7477;SDS011;3780;42.424;25.636;2024-02-28T10:56:46;27.42;;;13.48;;
7477;SDS011;3780;42.424;25.636;2024-02-28T10:59:13;18.05;;;11.57;;
7477;SDS011;3780;42.424;25.636;2024-02-28T11:01:40;21.70;;;12.90;;
7477;SDS011;3780;42.424;25.636;2024-02-28T11:04:08;23.73;;;13.45;;
7477;SDS011;3780;42.424;25.636;2024-02-28T11:06:34;24.98;;;11.10;;
7477;SDS011;3780;42.424;25.636;2024-02-28T11:09:00;21.60;;;10.52;;
7477;SDS011;3780;42.424;25.636;2024-02-28T11:11:29;17.90;;;10.05;;
7477;SDS011;3780;42.424;25.636;2024-02-28T11:13:56;21.90;;;11.13;;
7477;SDS011;3780;42.424;25.636;2024-02-28T11:16:28;15.63;;;10.80;;
7477;SDS011;3780;42.424;25.636;2024-02-28T11:18:53;21.50;;;10.40;;
7477;SDS011;3780;42.424;25.636;2024-02-28T11:21:19;18.33;;;10.70;;
7477;SDS011;3780;42.424;25.636;2024-02-28T11:23:47;20.17;;;11.30;;
7477;SDS011;3780;42.424;25.636;2024-02-28T11:26:13;18.98;;;11.23;;
7477;SDS011;3780;42.424;25.636;2024-02-28T11:28:39;22.63;;;10.70;;
7477;SDS011;3780;42.424;25.636;2024-02-28T11:31:04;17.48;;;10.07;;
7477;SDS011;3780;42.424;25.636;2024-02-28T11:33:30;21.20;;;9.98;;
7477;SDS011;3780;42.424;25.636;2024-02-28T11:35:58;15.52;;;9.55;;
7477;SDS011;3780;42.424;25.636;2024-02-28T11:38:26;20.67;;;10.15;;
7477;SDS011;3780;42.424;25.636;2024-02-28T11:40:52;20.50;;;10.63;;
7477;SDS011;3780;42.424;25.636;2024-02-28T11:43:17;21.85;;;10.32;;
7477;SDS011;3780;42.424;25.636;2024-02-28T11:45:43;24.52;;;10.50;;
7477;SDS011;3780;42.424;25.636;2024-02-28T11:48:09;19.45;;;9.50;;
7477;SDS011;3780;42.424;25.636;2024-02-28T11:50:34;15.75;;;9.52;;
7477;SDS011;3780;42.424;25.636;2024-02-28T11:53:02;16.45;;;8.57;;
7477;SDS011;3780;42.424;25.636;2024-02-28T11:55:29;15.25;;;8.50;;
7477;SDS011;3780;42.424;25.636;2024-02-28T11:57:54;20.58;;;10.15;;
7477;SDS011;3780;42.424;25.636;2024-02-28T12:00:20;21.23;;;10.10;;
7477;SDS011;3780;42.424;25.636;2024-02-28T12:02:45;17.23;;;9.50;;
7477;SDS011;3780;42.424;25.636;2024-02-28T12:05:11;16.10;;;8.77;;
7477;SDS011;3780;42.424;25.636;2024-02-28T12:07:36;16.67;;;9.57;;
7477;SDS011;3780;42.424;25.636;2024-02-28T12:10:02;18.45;;;8.73;;
7477;SDS011;3780;42.424;25.636;2024-02-28T12:12:27;18.90;;;9.27;;
7477;SDS011;3780;42.424;25.636;2024-02-28T12:14:57;14.70;;;8.60;;
7477;SDS011;3780;42.424;25.636;2024-02-28T12:17:22;18.83;;;9.20;;
7477;SDS011;3780;42.424;25.636;2024-02-28T12:19:49;17.38;;;9.27;;
7477;SDS011;3780;42.424;25.636;2024-02-28T12:22:17;23.65;;;9.35;;
7477;SDS011;3780;42.424;25.636;2024-02-28T12:24:42;15.02;;;8.35;;
7477;SDS011;3780;42.424;25.636;2024-02-28T12:27:07;14.35;;;8.15;;
7477;SDS011;3780;42.424;25.636;2024-02-28T12:29:33;18.20;;;9.23;;
7477;SDS011;3780;42.424;25.636;2024-02-28T12:31:58;18.33;;;8.70;;
7477;SDS011;3780;42.424;25.636;2024-02-28T12:34:23;18.45;;;8.25;;
7477;SDS011;3780;42.424;25.636;2024-02-28T12:36:49;17.25;;;8.63;;
7477;SDS011;3780;42.424;25.636;2024-02-28T12:39:14;18.35;;;10.23;;
7477;SDS011;3780;42.424;25.636;2024-02-28T12:41:39;21.88;;;9.13;;
7477;SDS011;3780;42.424;25.636;2024-02-28T12:44:05;19.92;;;9.05;;
7477;SDS011;3780;42.424;25.636;2024-02-28T12:46:30;19.17;;;8.38;;
7477;SDS011;3780;42.424;25.636;2024-02-28T12:48:56;16.52;;;8.23;;
7477;SDS011;3780;42.424;25.636;2024-02-28T12:54:02;15.65;;;7.65;;
7477;SDS011;3780;42.424;25.636;2024-02-28T12:56:27;19.20;;;7.05;;
7477;SDS011;3780;42.424;25.636;2024-02-28T12:58:53;38.75;;;9.82;;
7477;SDS011;3780;42.424;25.636;2024-02-28T13:01:18;14.95;;;6.00;;
7477;SDS011;3780;42.424;25.636;2024-02-28T13:03:43;17.45;;;7.10;;
7477;SDS011;3780;42.424;25.636;2024-02-28T13:06:09;20.80;;;7.10;;
7477;SDS011;3780;42.424;25.636;2024-02-28T13:08:34;16.33;;;6.20;;
7477;SDS011;3780;42.424;25.636;2024-02-28T13:10:59;16.17;;;6.30;;
7477;SDS011;3780;42.424;25.636;2024-02-28T13:13:24;15.93;;;7.47;;
7477;SDS011;3780;42.424;25.636;2024-02-28T13:15:50;16.45;;;7.60;;
7477;SDS011;3780;42.424;25.636;2024-02-28T13:18:15;14.82;;;6.32;;
7477;SDS011;3780;42.424;25.636;2024-02-28T13:20:40;15.48;;;6.47;;
7477;SDS011;3780;42.424;25.636;2024-02-28T13:23:06;10.57;;;6.18;;
7477;SDS011;3780;42.424;25.636;2024-02-28T13:25:31;13.27;;;6.45;;
7477;SDS011;3780;42.424;25.636;2024-02-28T13:27:57;13.35;;;6.65;;
7477;SDS011;3780;42.424;25.636;2024-02-28T13:30:22;11.27;;;5.82;;
7477;SDS011;3780;42.424;25.636;2024-02-28T13:32:47;15.55;;;6.53;;
7477;SDS011;3780;42.424;25.636;2024-02-28T13:35:12;14.30;;;6.50;;
7477;SDS011;3780;42.424;25.636;2024-02-28T13:37:38;12.60;;;7.07;;
7477;SDS011;3780;42.424;25.636;2024-02-28T13:40:05;14.90;;;6.80;;
7477;SDS011;3780;42.424;25.636;2024-02-28T13:42:31;14.02;;;6.32;;
7477;SDS011;3780;42.424;25.636;2024-02-28T13:44:56;12.43;;;6.47;;
7477;SDS011;3780;42.424;25.636;2024-02-28T13:47:22;11.45;;;6.68;;
7477;SDS011;3780;42.424;25.636;2024-02-28T13:49:48;17.10;;;7.22;;
7477;SDS011;3780;42.424;25.636;2024-02-28T13:52:14;13.07;;;5.93;;
7477;SDS011;3780;42.424;25.636;2024-02-28T13:54:40;13.52;;;7.35;;
7477;SDS011;3780;42.424;25.636;2024-02-28T13:57:05;12.98;;;6.18;;
7477;SDS011;3780;42.424;25.636;2024-02-28T13:59:30;13.15;;;6.55;;
7477;SDS011;3780;42.424;25.636;2024-02-28T14:01:56;12.90;;;5.93;;
7477;SDS011;3780;42.424;25.636;2024-02-28T14:04:21;10.35;;;5.68;;
7477;SDS011;3780;42.424;25.636;2024-02-28T14:06:47;13.90;;;7.47;;
7477;SDS011;3780;42.424;25.636;2024-02-28T14:09:13;9.25;;;5.93;;
7477;SDS011;3780;42.424;25.636;2024-02-28T14:11:38;14.07;;;6.60;;
7477;SDS011;3780;42.424;25.636;2024-02-28T14:14:04;15.30;;;5.80;;
7477;SDS011;3780;42.424;25.636;2024-02-28T14:16:29;10.30;;;5.70;;
7477;SDS011;3780;42.424;25.636;2024-02-28T14:18:57;13.25;;;6.18;;
7477;SDS011;3780;42.424;25.636;2024-02-28T14:21:22;12.85;;;6.07;;
7477;SDS011;3780;42.424;25.636;2024-02-28T14:23:49;14.13;;;5.93;;
7477;SDS011;3780;42.424;25.636;2024-02-28T14:26:14;11.05;;;5.80;;
7477;SDS011;3780;42.424;25.636;2024-02-28T14:28:40;18.30;;;6.55;;
7477;SDS011;3780;42.424;25.636;2024-02-28T14:31:06;10.98;;;5.45;;